Time;durP1;ratioP1;P1;durP2;ratioP2;P2;SDS_P1;SDS_P2;PMS_P1;PMS_P2;Temp;Humidity;BMP_temperature;BMP_pressure;BME280_temperature;BME280_humidity;BME280_pressure;Samples;Min_cycle;Max_cycle;Signal;HPM_P1;HPM_P2
2023/12/25 00:01:08;;;;;;;13.88;3.60;;;11.60;99.90;;;;;;5074009;28;20056;-71
2023/12/25 00:03:34;;;;;;;11.65;2.83;;;11.50;99.90;;;;;;5074442;28;20085;-71
2023/12/25 00:06:00;;;;;;;14.80;3.33;;;11.50;99.90;;;;;;5057759;28;20488;-72
2023/12/25 00:08:25;;;;;;;17.40;3.63;;;11.50;99.90;;;;;;5073255;28;20051;-72
2023/12/25 00:10:51;;;;;;;13.35;2.92;;;11.60;99.90;;;;;;5075123;28;20403;-71
2023/12/25 00:13:16;;;;;;;19.02;4.18;;;11.50;99.90;;;;;;5073649;28;20066;-71
2023/12/25 00:15:42;;;;;;;12.23;3.22;;;11.50;99.90;;;;;;5074653;28;20052;-72
2023/12/25 00:18:08;;;;;;;15.63;3.15;;;11.50;99.90;;;;;;5073695;28;20071;-71
2023/12/25 00:20:33;;;;;;;14.63;3.65;;;11.50;99.90;;;;;;5073861;28;20345;-72
2023/12/25 00:22:59;;;;;;;23.05;3.63;;;11.50;99.90;;;;;;5056875;28;20075;-72
2023/12/25 00:25:25;;;;;;;15.50;3.05;;;11.60;99.90;;;;;;5073227;28;20210;-71
2023/12/25 00:27:51;;;;;;;15.80;3.05;;;11.50;99.90;;;;;;5074843;28;20119;-71
2023/12/25 00:30:17;;;;;;;14.40;2.85;;;11.50;99.90;;;;;;5056189;28;20549;-72
2023/12/25 00:32:43;;;;;;;12.00;3.00;;;11.60;99.90;;;;;;5073459;28;20095;-72
2023/12/25 00:35:08;;;;;;;17.00;3.35;;;11.60;99.90;;;;;;5074017;28;20511;-71
2023/12/25 00:37:34;;;;;;;15.25;3.47;;;11.60;99.90;;;;;;5073455;28;20052;-71
2023/12/25 00:40:00;;;;;;;15.98;3.20;;;11.60;99.90;;;;;;5074149;28;20044;-71
2023/12/25 00:42:25;;;;;;;16.13;2.92;;;11.50;99.90;;;;;;5073683;28;20047;-71
2023/12/25 00:44:51;;;;;;;13.45;3.17;;;11.60;99.90;;;;;;5073545;28;20057;-71
2023/12/25 00:47:17;;;;;;;19.42;3.08;;;11.60;99.90;;;;;;5073823;28;20124;-71
2023/12/25 00:49:42;;;;;;;15.32;3.17;;;11.50;99.90;;;;;;5074983;28;20265;-71
2023/12/25 00:52:08;;;;;;;11.85;2.97;;;11.50;99.90;;;;;;5074120;28;20048;-72
2023/12/25 00:54:35;;;;;;;18.58;3.63;;;11.50;99.90;;;;;;5074331;28;20051;-72
2023/12/25 00:57:01;;;;;;;18.23;3.83;;;11.50;99.90;;;;;;5073202;28;20047;-70
2023/12/25 00:59:27;;;;;;;15.48;3.55;;;11.50;99.90;;;;;;5073893;28;20132;-72
2023/12/25 01:01:52;;;;;;;15.85;3.47;;;11.50;99.90;;;;;;5072863;28;20044;-71
2023/12/25 01:04:18;;;;;;;10.35;2.38;;;11.50;99.90;;;;;;5073405;28;20041;-70
2023/12/25 01:06:44;;;;;;;10.20;2.72;;;11.50;99.90;;;;;;5074079;28;20047;-71
2023/12/25 01:09:09;;;;;;;16.73;2.92;;;11.50;99.90;;;;;;5074019;28;20485;-71
2023/12/25 01:11:42;;;;;;;11.23;2.50;;;11.50;99.90;;;;;;5073566;28;20114;-70
2023/12/25 01:14:08;;;;;;;10.77;2.67;;;11.50;99.90;;;;;;5074220;28;20480;-70
2023/12/25 01:16:35;;;;;;;13.95;2.97;;;11.50;99.90;;;;;;5073138;28;20127;-71
2023/12/25 01:19:00;;;;;;;11.88;2.60;;;11.50;99.90;;;;;;5073238;28;20056;-70
2023/12/25 01:21:26;;;;;;;9.43;2.20;;;11.50;99.90;;;;;;5073400;28;20110;-71
2023/12/25 01:23:52;;;;;;;10.10;2.60;;;11.40;99.90;;;;;;5074110;28;20117;-70
2023/12/25 01:26:18;;;;;;;13.65;2.80;;;11.40;99.90;;;;;;5072236;28;20467;-70
2023/12/25 01:28:44;;;;;;;8.07;2.38;;;11.40;99.90;;;;;;5072451;28;20105;-70
2023/12/25 01:31:10;;;;;;;12.00;2.47;;;11.40;99.90;;;;;;5073706;28;20127;-70
2023/12/25 01:33:36;;;;;;;15.23;2.65;;;11.40;99.90;;;;;;5072711;28;20095;-70
2023/12/25 01:36:01;;;;;;;13.00;2.35;;;11.30;99.90;;;;;;5072914;28;20480;-70
2023/12/25 01:38:27;;;;;;;11.95;3.10;;;11.30;99.90;;;;;;5072954;28;20158;-71
2023/12/25 01:40:53;;;;;;;11.57;2.35;;;11.30;99.90;;;;;;5073474;28;20131;-71
2023/12/25 01:43:18;;;;;;;10.85;2.22;;;11.30;99.90;;;;;;5055923;28;20055;-70
2023/12/25 01:45:44;;;;;;;17.80;3.38;;;11.30;99.90;;;;;;5073763;28;20095;-70
2023/12/25 01:48:11;;;;;;;13.80;2.72;;;11.20;99.90;;;;;;5073576;28;20043;-70
2023/12/25 01:50:37;;;;;;;16.50;2.97;;;11.20;99.90;;;;;;5073032;28;20668;-71
2023/12/25 01:53:04;;;;;;;12.95;2.97;;;11.20;99.90;;;;;;5073714;28;20049;-70
2023/12/25 01:55:30;;;;;;;12.13;3.10;;;11.20;99.90;;;;;;5056121;28;20063;-70
2023/12/25 01:57:56;;;;;;;14.57;3.20;;;11.10;99.90;;;;;;5074125;28;20079;-70
2023/12/25 02:00:22;;;;;;;12.07;3.05;;;11.10;99.90;;;;;;5072535;28;20056;-71
2023/12/25 02:02:48;;;;;;;12.48;2.78;;;11.10;99.90;;;;;;5074091;28;20127;-70
2023/12/25 02:05:14;;;;;;;9.73;2.80;;;11.00;99.90;;;;;;5072220;28;20123;-71
2023/12/25 02:07:42;;;;;;;14.15;2.70;;;11.10;99.90;;;;;;5071814;28;20044;-70
2023/12/25 02:10:08;;;;;;;18.05;2.88;;;11.10;99.90;;;;;;5071950;28;20052;-71
2023/12/25 02:12:35;;;;;;;10.38;2.10;;;11.00;99.90;;;;;;5071600;28;20044;-70
2023/12/25 02:15:02;;;;;;;10.77;2.70;;;11.10;99.90;;;;;;5071999;28;20091;-70
2023/12/25 02:17:29;;;;;;;12.85;2.58;;;11.00;99.90;;;;;;5071110;28;20080;-70
2023/12/25 02:19:56;;;;;;;16.77;3.65;;;11.00;99.90;;;;;;5071750;28;20541;-71
2023/12/25 02:22:21;;;;;;;9.77;2.30;;;11.00;99.90;;;;;;5072749;28;20097;-70
2023/12/25 02:25:02;;;;;;;13.18;2.88;;;11.00;99.90;;;;;;5071631;28;20131;-70
2023/12/25 02:27:29;;;;;;;12.13;3.35;;;11.00;99.90;;;;;;5072772;28;20044;-70
2023/12/25 02:29:55;;;;;;;13.98;2.92;;;10.90;99.90;;;;;;5072974;28;20036;-71
2023/12/25 02:32:21;;;;;;;12.45;3.40;;;10.90;99.90;;;;;;5071775;28;20402;-72
2023/12/25 02:34:47;;;;;;;10.90;2.17;;;10.90;99.90;;;;;;5073038;28;20060;-70
2023/12/25 02:37:14;;;;;;;13.60;2.75;;;10.90;99.90;;;;;;5071739;28;20036;-70
2023/12/25 02:39:39;;;;;;;17.50;2.58;;;10.90;99.90;;;;;;5070889;28;20041;-71
2023/12/25 02:42:05;;;;;;;14.43;3.15;;;10.90;99.90;;;;;;5071719;28;20052;-71
2023/12/25 02:44:31;;;;;;;15.70;3.00;;;11.00;99.90;;;;;;5072258;28;20044;-71
2023/12/25 02:46:56;;;;;;;11.10;2.80;;;11.00;99.90;;;;;;5057835;28;20139;-71
2023/12/25 02:49:22;;;;;;;10.48;2.30;;;11.00;99.90;;;;;;5075739;28;20052;-71
2023/12/25 02:51:48;;;;;;;12.60;2.85;;;11.00;99.90;;;;;;5076069;28;20050;-71
2023/12/25 02:54:14;;;;;;;11.93;2.83;;;10.90;99.90;;;;;;5075590;28;20055;-71
2023/12/25 02:56:40;;;;;;;14.00;2.95;;;10.90;99.90;;;;;;5075046;28;20054;-71
2023/12/25 02:59:06;;;;;;;13.80;3.22;;;10.90;99.90;;;;;;5075381;28;20063;-71
2023/12/25 03:01:31;;;;;;;13.93;2.95;;;10.90;99.90;;;;;;5075658;28;20127;-71
2023/12/25 03:03:57;;;;;;;18.15;3.13;;;10.90;99.90;;;;;;5075315;28;20040;-71
2023/12/25 03:06:23;;;;;;;14.75;3.35;;;10.90;99.90;;;;;;5075511;28;20387;-71
2023/12/25 03:08:48;;;;;;;14.30;3.03;;;10.90;99.90;;;;;;5074688;28;20180;-71
2023/12/25 03:11:14;;;;;;;17.27;3.63;;;10.90;99.90;;;;;;5076356;28;20107;-70
2023/12/25 03:13:40;;;;;;;16.58;3.58;;;10.80;99.90;;;;;;5074765;28;20056;-70
2023/12/25 03:16:06;;;;;;;19.52;3.38;;;10.80;99.90;;;;;;5076029;28;20093;-70
2023/12/25 03:18:33;;;;;;;15.13;3.40;;;10.80;99.90;;;;;;5057838;28;20056;-70
2023/12/25 03:20:59;;;;;;;14.30;3.08;;;10.80;99.90;;;;;;5058426;28;20063;-71
2023/12/25 03:23:25;;;;;;;14.85;3.45;;;10.80;99.90;;;;;;5075969;28;20140;-70
2023/12/25 03:25:50;;;;;;;19.10;3.42;;;10.80;99.90;;;;;;5074817;28;20643;-71
2023/12/25 03:28:16;;;;;;;18.15;3.50;;;10.80;99.90;;;;;;5075531;28;20056;-71
2023/12/25 03:30:42;;;;;;;16.38;3.38;;;10.80;99.90;;;;;;5075003;28;20131;-71
2023/12/25 03:33:07;;;;;;;14.68;3.33;;;10.80;99.90;;;;;;5074819;28;20479;-71
2023/12/25 03:35:34;;;;;;;14.88;3.03;;;10.80;99.90;;;;;;5075388;28;20403;-71
2023/12/25 03:38:00;;;;;;;22.95;3.40;;;10.80;99.90;;;;;;5074771;28;20162;-71
2023/12/25 03:40:25;;;;;;;19.02;3.97;;;10.80;99.90;;;;;;5075843;28;20165;-70
2023/12/25 03:42:53;;;;;;;16.67;3.10;;;10.80;99.90;;;;;;5075185;28;20404;-71
2023/12/25 03:45:18;;;;;;;13.77;2.95;;;10.70;99.90;;;;;;5075110;28;20056;-71
2023/12/25 03:47:44;;;;;;;12.00;2.67;;;10.70;99.90;;;;;;5074312;28;20146;-71
2023/12/25 03:50:10;;;;;;;15.98;3.20;;;10.80;99.90;;;;;;5074969;28;20071;-71
2023/12/25 03:52:36;;;;;;;14.57;3.53;;;10.70;99.90;;;;;;5075598;28;20048;-71
2023/12/25 03:55:01;;;;;;;10.10;2.72;;;10.70;99.90;;;;;;5075119;28;20084;-71
2023/12/25 03:57:27;;;;;;;16.30;2.78;;;10.70;99.90;;;;;;5074253;28;20441;-72
2023/12/25 03:59:53;;;;;;;14.20;3.35;;;10.70;99.90;;;;;;5075857;28;20044;-72
2023/12/25 04:02:18;;;;;;;20.63;3.22;;;10.60;99.90;;;;;;5074818;28;20502;-72
2023/12/25 04:04:44;;;;;;;15.45;3.63;;;10.70;99.90;;;;;;5075018;28;20380;-73
2023/12/25 04:07:10;;;;;;;16.35;3.28;;;10.70;99.90;;;;;;5075320;28;20041;-72
2023/12/25 04:09:35;;;;;;;14.00;3.47;;;10.70;99.90;;;;;;5075523;28;20128;-72
2023/12/25 04:12:01;;;;;;;12.48;2.83;;;10.70;99.90;;;;;;5074819;28;20484;-72
2023/12/25 04:14:27;;;;;;;15.27;3.08;;;10.70;99.90;;;;;;5075398;28;20494;-71
2023/12/25 04:16:52;;;;;;;13.40;3.50;;;10.70;99.90;;;;;;5057406;28;20047;-71
2023/12/25 04:19:18;;;;;;;17.73;3.15;;;10.80;99.90;;;;;;5074267;28;20394;-71
2023/12/25 04:21:44;;;;;;;13.60;2.72;;;10.70;99.90;;;;;;5075150;28;20106;-72
2023/12/25 04:24:09;;;;;;;12.48;2.60;;;10.70;99.90;;;;;;5076194;28;20080;-72
2023/12/25 04:26:35;;;;;;;11.25;2.80;;;10.80;99.90;;;;;;5075973;28;20049;-71
2023/12/25 04:29:00;;;;;;;12.82;3.33;;;10.70;99.90;;;;;;5057969;28;20101;-70
2023/12/25 04:31:26;;;;;;;11.45;2.55;;;10.70;99.90;;;;;;5074787;28;20044;-70
2023/12/25 04:33:52;;;;;;;14.07;3.20;;;10.80;99.90;;;;;;5074864;28;20056;-71
2023/12/25 04:36:18;;;;;;;17.67;3.38;;;10.80;99.90;;;;;;5074880;28;20051;-70
2023/12/25 04:38:43;;;;;;;16.50;2.78;;;10.70;99.90;;;;;;5072878;28;20052;-71
2023/12/25 04:41:09;;;;;;;14.82;3.03;;;10.70;99.90;;;;;;5074331;28;20067;-71
2023/12/25 04:43:35;;;;;;;13.10;3.22;;;10.70;99.90;;;;;;5073329;28;20041;-71
2023/12/25 04:46:02;;;;;;;14.77;3.30;;;10.70;99.90;;;;;;5072863;28;20226;-71
2023/12/25 04:48:29;;;;;;;14.82;3.00;;;10.70;99.90;;;;;;5074550;28;20055;-71
2023/12/25 04:50:54;;;;;;;13.63;3.28;;;10.70;99.90;;;;;;5073297;28;20088;-71
2023/12/25 04:53:20;;;;;;;13.68;3.05;;;10.60;99.90;;;;;;5074453;28;20087;-71
2023/12/25 04:55:46;;;;;;;17.70;2.78;;;10.60;99.90;;;;;;5073954;28;20091;-71
2023/12/25 04:58:11;;;;;;;15.55;3.08;;;10.70;99.90;;;;;;5072840;28;20044;-71
2023/12/25 05:00:37;;;;;;;16.88;3.08;;;10.70;99.90;;;;;;5073015;28;20084;-71
2023/12/25 05:03:03;;;;;;;12.43;2.88;;;10.70;99.90;;;;;;5072471;28;20099;-71
2023/12/25 05:05:29;;;;;;;15.65;2.47;;;10.70;99.90;;;;;;5072757;28;20044;-71
2023/12/25 05:07:55;;;;;;;13.57;3.00;;;10.70;99.90;;;;;;5073644;28;20563;-71
2023/12/25 05:10:20;;;;;;;10.63;2.78;;;10.60;99.90;;;;;;5055380;28;20041;-71
2023/12/25 05:12:46;;;;;;;12.45;2.70;;;10.60;99.90;;;;;;5073697;28;20135;-71
2023/12/25 05:15:12;;;;;;;10.63;3.03;;;10.60;99.90;;;;;;5072845;28;20044;-71
2023/12/25 05:17:37;;;;;;;17.65;3.08;;;10.50;99.90;;;;;;5055981;28;20047;-71
2023/12/25 05:20:04;;;;;;;13.60;3.15;;;10.50;99.90;;;;;;5073677;28;20500;-70
2023/12/25 05:22:30;;;;;;;14.43;2.75;;;10.50;99.90;;;;;;5073646;28;20057;-71
2023/12/25 05:24:55;;;;;;;12.95;2.95;;;10.50;99.90;;;;;;5073280;28;20066;-70
2023/12/25 05:27:21;;;;;;;12.20;2.53;;;10.50;99.90;;;;;;5073274;28;20041;-70
2023/12/25 05:29:47;;;;;;;16.38;3.50;;;10.50;99.90;;;;;;5072200;28;20487;-70
2023/12/25 05:32:12;;;;;;;10.05;2.58;;;10.40;99.90;;;;;;5073615;28;20098;-71
2023/12/25 05:34:38;;;;;;;17.40;3.17;;;10.40;99.90;;;;;;5073224;28;20060;-70
2023/12/25 05:37:04;;;;;;;11.75;2.83;;;10.40;99.90;;;;;;5072974;28;20052;-71
2023/12/25 05:39:29;;;;;;;11.43;2.97;;;10.40;99.90;;;;;;5072565;28;20049;-71
2023/12/25 05:41:55;;;;;;;11.23;2.80;;;10.40;99.90;;;;;;5072057;28;20453;-71
2023/12/25 05:44:21;;;;;;;14.65;2.88;;;10.40;99.90;;;;;;5055925;28;20071;-71
2023/12/25 05:46:47;;;;;;;14.52;3.28;;;10.30;99.90;;;;;;5073107;28;20116;-71
2023/12/25 05:49:13;;;;;;;13.48;3.25;;;10.30;99.90;;;;;;5071934;28;20052;-70
2023/12/25 05:51:38;;;;;;;13.27;2.80;;;10.30;99.90;;;;;;5072069;28;20492;-70
2023/12/25 05:54:04;;;;;;;17.42;3.10;;;10.30;99.90;;;;;;5073015;28;20166;-71
2023/12/25 05:56:30;;;;;;;10.93;2.50;;;10.20;99.90;;;;;;5072019;28;20051;-71
2023/12/25 05:58:55;;;;;;;19.33;3.35;;;10.20;99.90;;;;;;5072900;28;20468;-71
2023/12/25 06:01:22;;;;;;;13.60;2.90;;;10.20;99.90;;;;;;5073153;28;20483;-71
2023/12/25 06:03:49;;;;;;;14.35;3.40;;;10.20;99.90;;;;;;5055474;28;20062;-71
2023/12/25 06:06:14;;;;;;;19.55;3.25;;;10.20;99.90;;;;;;5072748;28;20040;-71
2023/12/25 06:08:40;;;;;;;13.50;3.25;;;10.20;99.90;;;;;;5071712;28;20051;-71
2023/12/25 06:11:06;;;;;;;14.77;3.55;;;10.10;99.90;;;;;;5071816;28;20066;-71
2023/12/25 06:13:31;;;;;;;13.05;2.92;;;10.10;99.90;;;;;;5073162;28;20041;-71
2023/12/25 06:15:57;;;;;;;11.23;2.38;;;10.10;99.90;;;;;;5054446;28;20495;-72
2023/12/25 06:18:23;;;;;;;11.65;3.30;;;10.10;99.90;;;;;;5072863;28;20101;-71
2023/12/25 06:20:48;;;;;;;16.10;3.97;;;10.00;99.90;;;;;;5074146;28;20437;-71
2023/12/25 06:23:14;;;;;;;12.38;3.22;;;10.00;99.90;;;;;;5078437;28;20053;-71
2023/12/25 06:25:40;;;;;;;15.50;2.80;;;10.00;99.90;;;;;;5079856;28;20060;-71
2023/12/25 06:28:05;;;;;;;10.30;2.70;;;10.00;99.90;;;;;;5079560;28;20080;-72
2023/12/25 06:30:31;;;;;;;14.00;2.90;;;10.00;99.90;;;;;;5079717;28;20080;-71
2023/12/25 06:32:57;;;;;;;9.73;2.75;;;10.00;99.90;;;;;;5078201;28;20372;-71
2023/12/25 06:35:23;;;;;;;17.10;3.15;;;10.00;99.90;;;;;;5078189;28;20454;-71
2023/12/25 06:37:48;;;;;;;16.05;3.25;;;9.90;99.90;;;;;;5079552;28;20091;-71
2023/12/25 06:40:14;;;;;;;21.90;4.30;;;9.90;99.90;;;;;;5077695;28;20052;-71
2023/12/25 06:42:40;;;;;;;13.23;2.90;;;9.90;99.90;;;;;;5078341;28;20045;-71
2023/12/25 06:45:06;;;;;;;15.60;3.35;;;9.90;99.90;;;;;;5077887;28;20048;-71
2023/12/25 06:47:34;;;;;;;9.80;2.75;;;9.90;99.90;;;;;;5079240;28;20079;-71
2023/12/25 06:50:00;;;;;;;17.60;3.67;;;9.90;99.90;;;;;;5077903;28;20487;-71
2023/12/25 06:52:25;;;;;;;14.93;3.00;;;9.90;99.90;;;;;;5077978;28;20102;-72
2023/12/25 06:54:51;;;;;;;10.75;2.50;;;9.90;99.90;;;;;;5079571;28;20045;-71
2023/12/25 06:57:17;;;;;;;15.40;3.15;;;9.90;99.90;;;;;;5078700;28;20124;-71
2023/12/25 06:59:44;;;;;;;14.90;3.15;;;10.00;99.90;;;;;;5079005;28;20102;-71
2023/12/25 07:02:10;;;;;;;14.68;3.38;;;10.00;99.90;;;;;;5077866;28;20502;-72
2023/12/25 07:04:36;;;;;;;15.50;3.58;;;10.00;99.90;;;;;;5078124;28;20127;-72
2023/12/25 07:07:02;;;;;;;20.90;3.63;;;10.00;99.90;;;;;;5079079;28;20048;-71
2023/12/25 07:09:29;;;;;;;17.40;3.50;;;10.00;99.90;;;;;;5078970;28;20051;-72
2023/12/25 07:11:55;;;;;;;15.95;3.47;;;10.00;99.90;;;;;;5079173;28;20044;-71
2023/12/25 07:14:22;;;;;;;12.23;3.28;;;10.10;99.90;;;;;;5078501;28;20348;-72
2023/12/25 07:16:48;;;;;;;14.02;3.85;;;10.10;99.90;;;;;;5077854;28;20415;-72
2023/12/25 07:19:14;;;;;;;16.70;3.83;;;10.10;99.90;;;;;;5078357;28;20047;-72
2023/12/25 07:21:41;;;;;;;13.93;3.20;;;10.00;99.90;;;;;;5079021;28;20047;-72
2023/12/25 07:24:07;;;;;;;15.65;3.50;;;10.00;99.90;;;;;;5078399;28;20044;-72
2023/12/25 07:26:32;;;;;;;10.10;2.78;;;10.00;99.90;;;;;;5079018;28;20075;-71
2023/12/25 07:28:58;;;;;;;14.30;3.10;;;10.00;99.90;;;;;;5078821;28;20507;-72
2023/12/25 07:31:24;;;;;;;17.45;3.05;;;9.90;99.90;;;;;;5078625;28;20051;-71
2023/12/25 07:33:53;;;;;;;14.88;3.40;;;9.90;99.90;;;;;;5073292;28;20071;-71
2023/12/25 07:36:19;;;;;;;11.00;2.83;;;9.90;99.90;;;;;;5075454;28;20052;-72
2023/12/25 07:38:45;;;;;;;14.25;2.40;;;9.90;99.90;;;;;;5057908;28;20753;-71
2023/12/25 07:41:11;;;;;;;15.80;2.80;;;9.90;99.90;;;;;;5075354;28;20088;-72
2023/12/25 07:43:37;;;;;;;15.07;3.28;;;9.90;99.90;;;;;;5074402;28;20049;-71
2023/12/25 07:46:07;;;;;;;16.08;3.17;;;9.90;99.90;;;;;;5074482;28;20056;-71
2023/12/25 07:48:36;;;;;;;14.98;2.75;;;9.90;99.90;;;;;;5073779;28;20056;-71
2023/12/25 07:51:02;;;;;;;10.88;2.90;;;9.90;99.90;;;;;;5057926;28;20479;-71
2023/12/25 07:53:29;;;;;;;17.80;3.42;;;10.00;99.90;;;;;;5073988;28;20133;-72
2023/12/25 07:55:55;;;;;;;11.57;2.78;;;9.90;99.90;;;;;;5075318;28;20049;-73
2023/12/25 07:58:20;;;;;;;18.65;3.38;;;9.90;99.90;;;;;;5056722;28;20495;-73
2023/12/25 08:00:46;;;;;;;15.75;3.38;;;9.90;99.90;;;;;;5057698;28;20502;-73
2023/12/25 08:03:12;;;;;;;12.68;3.08;;;9.90;99.90;;;;;;5057494;28;20044;-71
2023/12/25 08:05:38;;;;;;;15.98;3.17;;;9.80;99.90;;;;;;5074421;28;20131;-72
2023/12/25 08:08:06;;;;;;;14.07;3.25;;;9.80;99.90;;;;;;5073861;28;20056;-73
2023/12/25 08:10:32;;;;;;;13.55;2.70;;;9.70;99.90;;;;;;5074881;28;20091;-73
2023/12/25 08:12:58;;;;;;;15.05;3.10;;;9.70;99.90;;;;;;5073687;28;20084;-73
2023/12/25 08:15:28;;;;;;;13.23;2.70;;;9.60;99.90;;;;;;5073360;28;20106;-79
2023/12/25 08:17:54;;;;;;;13.82;3.08;;;9.60;99.90;;;;;;5057939;28;20044;-79
2023/12/25 08:20:20;;;;;;;10.52;2.30;;;9.50;99.90;;;;;;5075092;28;20457;-81
2023/12/25 08:22:46;;;;;;;14.80;2.92;;;9.50;99.90;;;;;;5074488;28;20079;-82
2023/12/25 08:25:12;;;;;;;10.48;2.55;;;9.50;99.90;;;;;;5074298;28;20061;-77
2023/12/25 08:27:38;;;;;;;16.10;2.55;;;9.40;99.90;;;;;;5057987;28;20493;-75
2023/12/25 08:30:05;;;;;;;10.45;2.22;;;9.40;99.90;;;;;;5075850;28;20040;-74
2023/12/25 08:32:31;;;;;;;9.32;2.35;;;9.40;99.90;;;;;;5073654;28;20056;-75
2023/12/25 08:34:57;;;;;;;11.23;2.45;;;9.40;99.90;;;;;;5073623;28;20102;-76
2023/12/25 08:37:23;;;;;;;10.80;2.20;;;9.40;99.90;;;;;;5073386;28;20076;-73
2023/12/25 08:39:49;;;;;;;11.10;2.83;;;9.30;99.90;;;;;;5073697;28;20101;-74
2023/12/25 08:42:15;;;;;;;10.80;2.25;;;9.40;99.90;;;;;;5074466;28;20491;-75
2023/12/25 08:44:42;;;;;;;10.45;2.70;;;9.40;99.90;;;;;;5073108;28;20048;-74
2023/12/25 08:47:08;;;;;;;15.10;3.10;;;9.30;99.90;;;;;;5073836;28;20510;-73
2023/12/25 08:49:33;;;;;;;13.13;2.20;;;9.40;99.90;;;;;;5073819;28;20136;-74
2023/12/25 08:51:59;;;;;;;10.18;2.25;;;9.40;99.90;;;;;;5073602;28;20052;-75
2023/12/25 08:54:25;;;;;;;14.95;2.67;;;9.40;99.90;;;;;;5074279;28;20044;-73
2023/12/25 08:56:51;;;;;;;12.43;2.50;;;9.40;99.90;;;;;;5073497;28;20044;-74
2023/12/25 08:59:17;;;;;;;8.73;2.00;;;9.30;99.90;;;;;;5074484;28;20051;-74
2023/12/25 09:01:42;;;;;;;11.45;1.92;;;9.30;99.90;;;;;;5073673;28;20059;-74
2023/12/25 09:04:08;;;;;;;13.02;2.40;;;9.30;99.90;;;;;;5073128;28;20056;-74
2023/12/25 09:06:34;;;;;;;9.88;2.00;;;9.30;99.90;;;;;;5073383;28;20074;-76
2023/12/25 09:09:00;;;;;;;9.50;2.17;;;9.30;99.90;;;;;;5056464;28;20101;-74
2023/12/25 09:11:26;;;;;;;8.82;2.13;;;9.30;99.90;;;;;;5073707;28;20048;-75
2023/12/25 09:13:53;;;;;;;10.73;2.67;;;9.30;99.90;;;;;;5074321;28;20044;-75
2023/12/25 09:16:18;;;;;;;9.68;2.17;;;9.30;99.90;;;;;;5072214;28;20064;-75
2023/12/25 09:18:44;;;;;;;9.43;2.03;;;9.30;99.90;;;;;;5056765;28;20182;-76
2023/12/25 09:21:10;;;;;;;10.80;2.35;;;9.30;99.90;;;;;;5074664;28;20044;-76
2023/12/25 09:23:36;;;;;;;9.75;2.13;;;9.30;99.90;;;;;;5074098;28;20055;-74
2023/12/25 09:26:02;;;;;;;7.60;2.03;;;9.30;99.90;;;;;;5074259;28;20071;-76
2023/12/25 09:28:27;;;;;;;12.00;2.40;;;9.40;99.90;;;;;;5072015;28;20059;-74
2023/12/25 09:30:53;;;;;;;8.35;2.33;;;9.30;99.90;;;;;;5072592;28;20044;-75
2023/12/25 09:33:19;;;;;;;7.88;2.28;;;9.40;99.90;;;;;;5072535;28;20045;-76
2023/12/25 09:35:45;;;;;;;9.75;2.30;;;9.40;99.90;;;;;;5072839;28;20060;-75
2023/12/25 09:38:11;;;;;;;11.27;2.47;;;9.40;99.90;;;;;;5072019;28;20098;-75
2023/12/25 09:40:37;;;;;;;11.27;2.33;;;9.40;99.90;;;;;;5072197;28;20060;-75
2023/12/25 09:43:02;;;;;;;15.73;3.03;;;9.40;99.90;;;;;;5072503;28;20385;-79
2023/12/25 09:45:38;;;;;;;13.02;2.92;;;9.40;99.90;;;;;;5073620;28;20044;-75
2023/12/25 09:48:06;;;;;;;14.57;2.35;;;9.40;99.90;;;;;;5074416;28;20329;-76
2023/12/25 09:50:34;;;;;;;10.48;2.42;;;9.50;99.90;;;;;;5073020;28;20480;-76
2023/12/25 09:53:01;;;;;;;17.67;3.25;;;9.40;99.90;;;;;;5073501;28;20464;-76
2023/12/25 09:55:26;;;;;;;13.30;2.67;;;9.50;99.90;;;;;;5071036;28;20602;-75
2023/12/25 09:57:54;;;;;;;9.65;2.70;;;9.40;99.90;;;;;;5074029;28;20051;-76
2023/12/25 10:00:20;;;;;;;11.48;2.05;;;9.40;99.90;;;;;;5072493;28;20056;-77
2023/12/25 10:02:49;;;;;;;10.43;2.70;;;9.50;99.90;;;;;;5071271;28;20060;-77
2023/12/25 10:05:15;;;;;;;9.13;2.17;;;9.40;99.90;;;;;;5073233;28;20090;-76
2023/12/25 10:07:41;;;;;;;13.45;2.63;;;9.40;99.90;;;;;;5072482;28;20055;-76
2023/12/25 10:10:09;;;;;;;7.28;2.47;;;9.40;99.90;;;;;;5072759;28;20094;-76
2023/12/25 10:12:35;;;;;;;8.23;2.03;;;9.50;99.90;;;;;;5072085;28;20092;-77
2023/12/25 10:15:01;;;;;;;7.53;2.22;;;9.50;99.90;;;;;;5072117;28;20502;-76
2023/12/25 10:17:26;;;;;;;8.38;1.92;;;9.50;99.90;;;;;;5073028;28;20099;-75
2023/12/25 10:19:57;;;;;;;8.30;2.30;;;9.50;99.90;;;;;;5071963;28;20048;-75
2023/12/25 10:22:37;;;;;;;10.57;2.42;;;9.60;99.90;;;;;;5073757;28;20441;-75
2023/12/25 10:25:11;;;;;;;9.68;2.13;;;9.60;99.90;;;;;;5072236;28;20132;-75
2023/12/25 10:27:44;;;;;;;9.18;2.38;;;9.70;99.90;;;;;;5055331;28;20064;-76
2023/12/25 10:30:21;;;;;;;8.63;1.92;;;9.70;99.90;;;;;;5073165;28;20122;-76
2023/12/25 10:32:48;;;;;;;11.13;2.42;;;9.80;99.90;;;;;;5055692;28;20113;-76
2023/12/25 10:35:17;;;;;;;9.73;2.35;;;9.80;99.90;;;;;;5071676;28;20092;-78
2023/12/25 10:37:45;;;;;;;12.25;2.17;;;9.80;99.90;;;;;;5073184;28;20048;-78
2023/12/25 10:40:27;;;;;;;9.02;3.10;;;9.80;99.90;;;;;;5072312;28;20502;-78
2023/12/25 10:42:56;;;;;;;9.68;1.83;;;9.80;99.90;;;;;;5072366;28;20526;-76
2023/12/25 10:45:26;;;;;;;12.07;2.28;;;9.80;99.90;;;;;;5071859;28;20066;-76
2023/12/25 10:47:54;;;;;;;10.60;2.30;;;9.80;99.90;;;;;;5072529;28;20044;-77
2023/12/25 10:50:25;;;;;;;12.00;2.47;;;9.80;99.90;;;;;;5072435;28;20044;-77
2023/12/25 10:52:51;;;;;;;6.63;2.00;;;9.80;99.90;;;;;;5071315;28;20047;-77
2023/12/25 10:55:23;;;;;;;8.45;2.03;;;9.80;99.90;;;;;;5054891;28;20403;-79
2023/12/25 10:57:49;;;;;;;10.70;1.98;;;9.80;99.90;;;;;;5070746;28;20049;-76
2023/12/25 11:00:18;;;;;;;9.55;2.38;;;9.90;99.90;;;;;;5055271;28;20080;-81
2023/12/25 11:02:44;;;;;;;12.35;2.60;;;9.90;99.90;;;;;;5072668;28;20046;-82
2023/12/25 11:05:11;;;;;;;11.35;3.10;;;10.00;99.90;;;;;;5073526;28;20071;-82
2023/12/25 11:07:38;;;;;;;10.55;2.25;;;10.00;99.90;;;;;;5073186;28;20052;-79
2023/12/25 11:10:05;;;;;;;11.38;2.58;;;10.10;99.90;;;;;;5077283;28;20127;-84
2023/12/25 11:12:31;;;;;;;11.18;2.60;;;10.10;99.90;;;;;;5077519;28;20051;-83
2023/12/25 11:14:56;;;;;;;10.88;2.25;;;10.10;99.90;;;;;;5076752;28;20060;-85
2023/12/25 11:17:22;;;;;;;10.35;2.55;;;10.20;99.90;;;;;;5078785;28;20033;-86
2023/12/25 11:19:48;;;;;;;9.38;2.35;;;10.20;99.90;;;;;;5059494;28;20126;-83
2023/12/25 11:22:40;;;;;;;11.82;2.85;;;10.30;99.90;;;;;;5060207;28;20468;-85
2023/12/25 11:25:18;;;;;;;14.32;2.63;;;10.30;99.90;;;;;;5073937;28;20052;-85
2023/12/25 11:27:51;;;;;;;9.30;2.67;;;10.30;99.90;;;;;;5080048;28;20048;-87
2023/12/25 11:30:18;;;;;;;8.85;2.47;;;10.30;99.90;;;;;;5080903;28;20066;-86
2023/12/25 11:32:48;;;;;;;10.18;2.65;;;10.30;99.90;;;;;;5061909;28;20041;-89
2023/12/25 11:35:15;;;;;;;15.23;2.33;;;10.30;99.90;;;;;;5079060;28;20551;-89
2023/12/25 11:37:41;;;;;;;16.23;2.92;;;10.30;99.90;;;;;;5078732;28;20102;-79
2023/12/25 11:40:08;;;;;;;16.95;3.38;;;9.90;99.90;;;;;;5061669;28;20110;-89
2023/12/25 11:42:37;;;;;;;14.15;3.60;;;10.30;99.90;;;;;;5094834;28;20053;-88
2023/12/25 11:45:08;;;;;;;15.20;4.22;;;10.20;99.90;;;;;;5061326;28;20036;-82
2023/12/25 11:47:44;;;;;;;14.77;3.58;;;10.30;99.90;;;;;;5078990;28;20051;-86
2023/12/25 11:50:12;;;;;;;16.90;3.97;;;10.20;99.90;;;;;;5076962;28;20059;-84
2023/12/25 11:52:44;;;;;;;19.48;3.80;;;10.20;99.90;;;;;;5062468;28;20054;-88
2023/12/25 11:55:13;;;;;;;12.02;3.30;;;10.20;99.90;;;;;;5084848;28;20139;-84
2023/12/25 11:57:43;;;;;;;14.40;3.22;;;10.20;99.90;;;;;;5076468;28;20109;-83
2023/12/25 12:00:16;;;;;;;16.73;3.47;;;10.20;99.90;;;;;;5076256;28;20056;-79
2023/12/25 12:02:42;;;;;;;13.25;3.22;;;10.20;99.90;;;;;;5042144;28;20055;-83
2023/12/25 12:05:07;;;;;;;12.45;2.92;;;10.10;99.90;;;;;;5074639;28;20060;-83
2023/12/25 12:07:34;;;;;;;13.00;2.80;;;10.10;99.90;;;;;;5062685;28;20049;-82
2023/12/25 12:10:00;;;;;;;16.02;2.75;;;10.10;99.90;;;;;;5076799;28;20049;-83
2023/12/25 12:12:26;;;;;;;12.73;3.17;;;10.20;99.90;;;;;;5059121;28;20045;-81
2023/12/25 12:14:52;;;;;;;15.43;3.17;;;10.10;99.90;;;;;;5058170;28;20110;-78
2023/12/25 12:17:18;;;;;;;14.93;2.88;;;10.20;99.90;;;;;;5076379;28;20044;-81
2023/12/25 12:19:44;;;;;;;15.30;2.90;;;10.10;99.90;;;;;;5078738;28;20190;-81
2023/12/25 12:22:09;;;;;;;11.68;2.53;;;10.20;99.90;;;;;;5076330;28;20049;-84
2023/12/25 12:24:35;;;;;;;12.15;3.13;;;10.20;99.90;;;;;;5075943;28;20047;-79
2023/12/25 12:27:07;;;;;;;14.30;3.20;;;10.20;99.90;;;;;;5075146;28;20395;-84
2023/12/25 12:29:33;;;;;;;15.32;3.35;;;10.20;99.90;;;;;;5075873;28;20056;-82
2023/12/25 12:31:59;;;;;;;17.35;2.85;;;10.30;99.90;;;;;;5074513;28;20044;-84
2023/12/25 12:34:25;;;;;;;10.52;2.70;;;10.20;99.90;;;;;;5076242;28;20073;-82
2023/12/25 12:37:05;;;;;;;19.77;3.38;;;10.30;99.90;;;;;;5074401;28;20028;-82